createdAt,value
2023-01-24T00:00:55.473Z,8.00
2023-01-24T00:03:22.309Z,8.25
2023-01-24T00:05:50.054Z,8.40
2023-01-24T00:08:20.800Z,7.65
2023-01-24T00:10:48.466Z,7.97
2023-01-24T00:13:16.041Z,7.70
2023-01-24T00:15:44.039Z,7.90
2023-01-24T00:18:10.994Z,7.78
2023-01-24T00:20:37.939Z,8.02
2023-01-24T00:23:04.753Z,7.43
2023-01-24T00:25:31.513Z,7.70
2023-01-24T00:27:58.278Z,7.85
2023-01-24T00:30:29.552Z,7.45
2023-01-24T00:32:56.276Z,7.88
2023-01-24T00:35:23.270Z,7.40
2023-01-24T00:37:51.455Z,7.70
2023-01-24T00:40:18.306Z,7.20
2023-01-24T00:42:44.997Z,7.40
2023-01-24T00:45:11.784Z,7.70
2023-01-24T00:47:39.401Z,7.28
2023-01-24T00:50:08.596Z,7.53
2023-01-24T00:52:36.763Z,7.30
2023-01-24T00:55:04.824Z,7.22
2023-01-24T00:57:32.424Z,7.20
2023-01-24T00:59:59.123Z,7.10
2023-01-24T01:02:26.556Z,7.60
2023-01-24T01:04:53.455Z,7.13
2023-01-24T01:07:21.391Z,7.32
2023-01-24T01:09:48.470Z,7.15
2023-01-24T01:12:15.220Z,7.30
2023-01-24T01:14:41.995Z,7.43
2023-01-24T01:17:08.839Z,6.97
2023-01-24T01:19:36.387Z,7.22
2023-01-24T01:22:03.213Z,7.18
2023-01-24T01:24:29.948Z,7.27
2023-01-24T01:26:56.667Z,6.80
2023-01-24T01:29:23.594Z,7.32
2023-01-24T01:31:50.487Z,7.15
2023-01-24T01:34:17.548Z,7.03
2023-01-24T01:36:44.748Z,7.28
2023-01-24T01:39:11.647Z,6.85
2023-01-24T01:41:39.317Z,6.87
2023-01-24T01:44:41.440Z,6.60
2023-01-24T01:47:26.935Z,6.93
2023-01-24T01:50:02.555Z,6.82
2023-01-24T01:52:35.418Z,6.57
2023-01-24T01:55:11.284Z,7.10
2023-01-24T01:57:38.342Z,6.85
2023-01-24T02:00:08.006Z,6.90
2023-01-24T02:02:41.547Z,6.63
2023-01-24T02:05:11.072Z,6.72
2023-01-24T02:07:43.610Z,6.35
2023-01-24T02:10:11.557Z,6.78
2023-01-24T02:12:46.191Z,6.70
2023-01-24T02:15:35.158Z,6.63
2023-01-24T02:18:03.023Z,6.20
2023-01-24T02:20:41.860Z,6.40
2023-01-24T02:23:08.656Z,6.35
2023-01-24T02:25:39.080Z,6.20
2023-01-24T02:28:07.727Z,6.13
2023-01-24T02:30:36.156Z,6.30
2023-01-24T02:33:15.837Z,6.25
2023-01-24T02:35:42.847Z,6.13
2023-01-24T02:38:21.747Z,6.18
2023-01-24T02:40:53.634Z,6.22
2023-01-24T02:43:23.390Z,6.38
2023-01-24T02:45:50.136Z,6.40
2023-01-24T02:48:16.964Z,6.25
2023-01-24T02:51:03.208Z,6.07
2023-01-24T02:53:32.727Z,5.88
2023-01-24T02:56:24.987Z,5.97
2023-01-24T02:58:52.504Z,6.35
2023-01-24T03:01:20.519Z,6.20
2023-01-24T03:03:53.389Z,6.03
2023-01-24T03:06:21.093Z,5.90
2023-01-24T03:08:47.965Z,6.00
2023-01-24T03:11:24.621Z,6.30
2023-01-24T03:14:09.681Z,6.15
2023-01-24T03:16:55.393Z,6.18
2023-01-24T03:19:44.437Z,6.15
2023-01-24T03:22:30.654Z,6.10
2023-01-24T03:25:16.830Z,6.03
2023-01-24T03:28:02.399Z,5.82
2023-01-24T03:30:50.797Z,5.93
2023-01-24T03:33:36.719Z,5.72
2023-01-24T03:36:07.356Z,5.80
2023-01-24T03:38:54.429Z,5.22
2023-01-24T03:41:22.532Z,5.40
2023-01-24T03:43:49.295Z,5.37
2023-01-24T03:46:16.093Z,5.88
2023-01-24T03:48:47.367Z,5.90
2023-01-24T03:51:34.122Z,6.13
2023-01-24T03:54:01.155Z,5.97
2023-01-24T03:56:35.763Z,6.28
2023-01-24T03:59:02.487Z,6.37
2023-01-24T04:01:32.243Z,6.65
2023-01-24T04:04:04.621Z,6.53
2023-01-24T04:06:31.418Z,6.43
2023-01-24T04:08:59.030Z,7.10
2023-01-24T04:11:26.176Z,6.83
2023-01-24T04:13:59.497Z,7.03
2023-01-24T04:16:26.309Z,6.90
2023-01-24T04:19:15.747Z,7.35
2023-01-24T04:21:43.523Z,7.00
2023-01-24T04:24:11.929Z,7.40
2023-01-24T04:26:42.327Z,6.90
2023-01-24T04:29:14.624Z,7.05
2023-01-24T04:31:42.249Z,7.75
2023-01-24T04:34:22.007Z,7.80
2023-01-24T04:36:48.816Z,7.83
2023-01-24T04:39:15.725Z,7.97
2023-01-24T04:41:56.867Z,8.23
2023-01-24T04:44:23.988Z,8.33
2023-01-24T04:46:52.118Z,8.45
2023-01-24T04:49:19.008Z,8.20
2023-01-24T04:51:49.216Z,8.63
2023-01-24T04:54:21.365Z,8.63
2023-01-24T04:56:49.488Z,9.05
2023-01-24T04:59:16.987Z,9.00
2023-01-24T05:01:45.841Z,9.32
2023-01-24T05:04:31.797Z,9.93
2023-01-24T05:06:58.818Z,10.02
2023-01-24T05:09:26.070Z,10.38
2023-01-24T05:11:59.599Z,10.38
2023-01-24T05:14:26.366Z,10.95
2023-01-24T05:16:54.555Z,10.53
2023-01-24T05:19:21.645Z,11.10
2023-01-24T05:21:48.400Z,10.18
2023-01-24T05:24:15.635Z,11.52
2023-01-24T05:26:43.409Z,11.52
2023-01-24T05:29:11.928Z,11.27
2023-01-24T05:31:39.950Z,11.00
2023-01-24T05:34:06.817Z,11.30
2023-01-24T05:36:33.878Z,11.38
2023-01-24T05:39:01.994Z,11.87
2023-01-24T05:41:31.376Z,12.07
2023-01-24T05:43:59.255Z,11.63
2023-01-24T05:46:30.643Z,11.68
2023-01-24T05:49:08.918Z,12.18
2023-01-24T05:51:35.732Z,12.32
2023-01-24T05:54:04.141Z,12.10
2023-01-24T05:56:50.803Z,12.50
2023-01-24T05:59:17.588Z,12.48
2023-01-24T06:01:44.422Z,12.93
2023-01-24T06:04:11.303Z,13.07
2023-01-24T06:06:39.462Z,12.50
2023-01-24T06:09:06.281Z,12.97
2023-01-24T06:11:34.236Z,12.93
2023-01-24T06:14:14.780Z,13.13
2023-01-24T06:16:45.076Z,12.15
2023-01-24T06:19:14.607Z,12.98
2023-01-24T06:22:02.332Z,13.02
2023-01-24T06:24:31.821Z,12.50
2023-01-24T06:27:17.743Z,12.73
2023-01-24T06:29:44.846Z,13.05
2023-01-24T06:32:11.636Z,13.40
2023-01-24T06:35:08.913Z,13.23
2023-01-24T06:37:50.810Z,12.50
2023-01-24T06:40:26.046Z,12.85
2023-01-24T06:42:53.953Z,13.35
2023-01-24T06:45:21.816Z,12.80
2023-01-24T06:47:49.003Z,13.27
2023-01-24T06:50:22.205Z,12.70
2023-01-24T06:52:50.799Z,12.57
2023-01-24T06:55:18.584Z,12.35
2023-01-24T06:57:47.588Z,12.63
2023-01-24T07:00:16.029Z,12.43
2023-01-24T07:02:43.058Z,12.52
2023-01-24T07:05:10.347Z,12.95
2023-01-24T07:07:37.301Z,12.60
2023-01-24T07:10:04.436Z,12.48
2023-01-24T07:12:31.126Z,12.30
2023-01-24T07:14:57.913Z,12.55
2023-01-24T07:17:24.940Z,12.85
2023-01-24T07:19:51.898Z,12.30
2023-01-24T07:22:19.840Z,13.00
2023-01-24T07:24:47.884Z,13.10
2023-01-24T07:27:15.006Z,12.18
2023-01-24T07:29:41.812Z,12.30
2023-01-24T07:32:10.879Z,12.17
2023-01-24T07:34:37.979Z,12.25
2023-01-24T07:37:07.525Z,12.10
2023-01-24T07:39:34.567Z,11.80
2023-01-24T07:42:01.395Z,12.32
2023-01-24T07:44:28.178Z,12.55
2023-01-24T07:46:55.185Z,12.63
2023-01-24T07:49:22.002Z,13.63
2023-01-24T07:51:52.568Z,13.20
2023-01-24T07:54:21.814Z,13.45
2023-01-24T07:56:49.259Z,13.57
2023-01-24T07:59:16.164Z,13.80
2023-01-24T08:01:42.976Z,14.13
2023-01-24T08:04:10.121Z,13.43
2023-01-24T08:06:37.150Z,14.70
2023-01-24T08:09:03.980Z,14.23
2023-01-24T08:11:30.753Z,14.60
2023-01-24T08:13:57.433Z,13.93
2023-01-24T08:16:26.742Z,14.80
2023-01-24T08:18:53.602Z,15.25
2023-01-24T08:21:21.000Z,14.60
2023-01-24T08:23:47.748Z,15.95
2023-01-24T08:26:15.474Z,17.13
2023-01-24T08:28:42.191Z,18.38
2023-01-24T08:31:09.000Z,18.60
2023-01-24T08:33:38.824Z,18.13
2023-01-24T08:36:06.682Z,18.60
2023-01-24T08:38:33.645Z,18.85
2023-01-24T08:41:05.015Z,18.88
2023-01-24T08:43:33.666Z,19.10
2023-01-24T08:46:00.433Z,19.63
2023-01-24T08:48:30.029Z,19.45
2023-01-24T08:50:58.069Z,19.83
2023-01-24T08:53:24.795Z,24.05
2023-01-24T08:55:53.504Z,29.08
2023-01-24T08:58:21.783Z,30.77
2023-01-24T09:00:50.875Z,32.83
2023-01-24T09:03:19.620Z,33.58
2023-01-24T09:05:46.698Z,33.58
2023-01-24T09:08:16.319Z,33.10
2023-01-24T09:10:43.060Z,34.33
2023-01-24T09:13:09.918Z,34.28
2023-01-24T09:15:39.067Z,33.58
2023-01-24T09:18:05.960Z,33.55
2023-01-24T09:20:32.835Z,33.17
2023-01-24T09:22:59.669Z,32.13
2023-01-24T09:25:26.544Z,32.45
2023-01-24T09:27:54.801Z,32.30
2023-01-24T09:30:23.019Z,30.73
2023-01-24T09:32:50.075Z,31.30
2023-01-24T09:35:17.892Z,30.60
2023-01-24T09:37:45.839Z,29.92
2023-01-24T09:40:43.616Z,29.48
2023-01-24T09:43:16.864Z,28.65
2023-01-24T09:46:01.206Z,28.77
2023-01-24T09:48:30.721Z,26.60
2023-01-24T09:51:04.627Z,26.70
2023-01-24T09:53:44.006Z,26.45
2023-01-24T09:56:30.702Z,26.33
2023-01-24T09:59:33.201Z,25.65
2023-01-24T10:02:02.206Z,24.88
2023-01-24T10:04:36.660Z,24.67
2023-01-24T10:07:15.432Z,24.00
2023-01-24T10:10:00.254Z,22.35
2023-01-24T10:12:41.501Z,23.97
2023-01-24T10:15:39.276Z,22.42
2023-01-24T10:18:19.923Z,22.73
2023-01-24T10:21:23.975Z,22.60
2023-01-24T10:23:55.746Z,21.67
2023-01-24T10:26:55.093Z,21.27
2023-01-24T10:29:38.603Z,20.50
2023-01-24T10:32:12.607Z,20.75
2023-01-24T10:34:43.821Z,20.20
2023-01-24T10:37:10.532Z,19.73
2023-01-24T10:39:38.421Z,19.73
2023-01-24T10:42:28.955Z,20.13
2023-01-24T10:45:11.423Z,19.13
2023-01-24T10:48:13.324Z,18.90
2023-01-24T10:50:45.661Z,18.92
2023-01-24T10:53:31.108Z,18.58
2023-01-24T10:56:04.127Z,18.17
2023-01-24T10:59:00.704Z,17.90
2023-01-24T11:01:44.320Z,19.13
2023-01-24T11:04:31.327Z,18.40
2023-01-24T11:06:58.115Z,18.77
2023-01-24T11:09:32.432Z,18.83
2023-01-24T11:12:01.166Z,18.40
2023-01-24T11:14:31.989Z,19.87
2023-01-24T11:17:01.029Z,18.85
2023-01-24T11:19:40.289Z,19.38
2023-01-24T11:22:25.217Z,19.15
2023-01-24T11:24:59.527Z,19.33
2023-01-24T11:27:27.581Z,19.60
2023-01-24T11:30:19.183Z,19.77
2023-01-24T11:32:54.430Z,19.92
2023-01-24T11:35:36.192Z,19.60
2023-01-24T11:38:19.882Z,19.98
2023-01-24T11:41:01.923Z,19.90
2023-01-24T11:43:51.038Z,19.17
2023-01-24T11:46:40.054Z,19.70
2023-01-24T11:49:11.155Z,18.40
2023-01-24T11:52:17.976Z,18.95
2023-01-24T11:55:08.519Z,19.08
2023-01-24T11:57:57.162Z,19.38
2023-01-24T12:00:51.511Z,19.20
2023-01-24T12:03:51.170Z,19.42
2023-01-24T12:06:43.144Z,18.52
2023-01-24T12:09:24.556Z,19.03
2023-01-24T12:11:54.107Z,18.08
2023-01-24T12:14:52.610Z,17.77
2023-01-24T12:17:50.260Z,18.73
2023-01-24T12:20:51.260Z,18.13
2023-01-24T12:23:53.495Z,18.35
2023-01-24T12:26:25.919Z,18.42
2023-01-24T12:29:12.338Z,18.30
2023-01-24T12:32:11.676Z,18.15
2023-01-24T12:35:00.206Z,17.52
2023-01-24T12:37:38.070Z,17.90
2023-01-24T12:40:08.281Z,17.60
2023-01-24T12:43:01.071Z,18.03
2023-01-24T12:45:59.135Z,17.93
2023-01-24T12:48:37.333Z,17.15
2023-01-24T12:51:37.832Z,17.52
2023-01-24T12:54:15.015Z,16.85
2023-01-24T12:56:51.319Z,16.80
2023-01-24T12:59:25.505Z,17.08
2023-01-24T13:02:25.237Z,16.58
2023-01-24T13:05:36.212Z,16.20
2023-01-24T13:08:06.204Z,16.40
2023-01-24T13:10:48.287Z,16.15
2023-01-24T13:13:24.107Z,16.02
2023-01-24T13:16:00.791Z,16.15
2023-01-24T13:18:53.496Z,15.75
2023-01-24T13:21:38.643Z,15.93
2023-01-24T13:24:14.346Z,16.00
2023-01-24T13:26:45.710Z,16.35
2023-01-24T13:29:15.183Z,15.50
2023-01-24T13:32:04.304Z,15.95
2023-01-24T13:34:34.886Z,15.15
2023-01-24T13:37:03.628Z,16.08
2023-01-24T13:39:35.247Z,15.67
2023-01-24T13:42:13.908Z,14.97
2023-01-24T13:44:40.643Z,15.50
2023-01-24T13:47:10.485Z,15.18
2023-01-24T13:49:46.594Z,15.52
2023-01-24T13:52:31.824Z,14.63
2023-01-24T13:55:00.393Z,14.60
2023-01-24T13:57:38.114Z,14.90
2023-01-24T14:00:10.295Z,14.60
2023-01-24T14:02:49.634Z,14.73
2023-01-24T14:05:29.808Z,14.85
2023-01-24T14:08:03.853Z,15.20
2023-01-24T14:10:45.636Z,14.18
2023-01-24T14:13:43.427Z,14.27
2023-01-24T14:16:28.584Z,13.93
2023-01-24T14:19:00.880Z,14.20
2023-01-24T14:21:54.772Z,14.30
2023-01-24T14:24:29.886Z,13.30
2023-01-24T14:27:05.342Z,13.90
2023-01-24T14:29:42.479Z,13.75
2023-01-24T14:32:31.179Z,14.07
2023-01-24T14:35:20.939Z,13.65
2023-01-24T14:37:49.458Z,13.05
2023-01-24T14:40:22.321Z,12.80
2023-01-24T14:42:51.540Z,13.23
2023-01-24T14:45:26.045Z,12.68
2023-01-24T14:47:53.535Z,12.93
2023-01-24T14:50:29.611Z,12.73
2023-01-24T14:52:56.746Z,12.20
2023-01-24T14:55:43.276Z,12.50
2023-01-24T14:58:25.663Z,13.00
2023-01-24T15:00:56.075Z,12.50
2023-01-24T15:03:25.776Z,12.20
2023-01-24T15:06:04.867Z,12.30
2023-01-24T15:08:34.850Z,12.27
2023-01-24T15:11:05.316Z,12.35
2023-01-24T15:13:49.667Z,12.53
2023-01-24T15:16:23.035Z,11.90
2023-01-24T15:18:55.455Z,12.27
2023-01-24T15:21:39.310Z,12.20
2023-01-24T15:24:17.984Z,11.73
2023-01-24T15:26:45.124Z,11.45
2023-01-24T15:29:37.039Z,11.68
2023-01-24T15:32:28.371Z,12.13
2023-01-24T15:35:14.023Z,12.10
2023-01-24T15:37:41.036Z,11.98
2023-01-24T15:40:19.029Z,12.23
2023-01-24T15:43:07.508Z,11.93
2023-01-24T15:45:39.189Z,12.30
2023-01-24T15:48:36.778Z,12.00
2023-01-24T15:51:07.588Z,11.43
2023-01-24T15:53:37.203Z,11.73
2023-01-24T15:56:20.368Z,11.32
2023-01-24T15:58:49.135Z,12.35
2023-01-24T16:01:16.235Z,11.63
2023-01-24T16:03:45.492Z,11.30
2023-01-24T16:06:13.185Z,11.30
2023-01-24T16:08:39.964Z,11.02
2023-01-24T16:11:06.721Z,11.15
2023-01-24T16:13:41.802Z,11.20
2023-01-24T16:16:13.816Z,10.90
2023-01-24T16:18:41.993Z,10.73
2023-01-24T16:21:10.620Z,11.10
2023-01-24T16:23:37.466Z,11.48
2023-01-24T16:26:04.509Z,10.75
2023-01-24T16:28:31.360Z,11.07
2023-01-24T16:31:03.548Z,10.90
2023-01-24T16:33:30.461Z,10.93
2023-01-24T16:35:58.504Z,11.30
2023-01-24T16:38:25.328Z,11.30
2023-01-24T16:40:52.251Z,10.80
2023-01-24T16:43:21.703Z,11.00
2023-01-24T16:45:53.276Z,10.93
2023-01-24T16:48:20.093Z,10.90
2023-01-24T16:50:46.865Z,11.25
2023-01-24T16:53:16.312Z,11.35
2023-01-24T16:55:43.727Z,11.10
2023-01-24T16:58:12.403Z,10.93
2023-01-24T17:00:39.636Z,10.90
2023-01-24T17:03:06.691Z,10.73
2023-01-24T17:05:33.559Z,10.65
2023-01-24T17:08:00.315Z,10.30
2023-01-24T17:10:28.235Z,10.70
2023-01-24T17:12:55.305Z,10.32
2023-01-24T17:15:22.197Z,10.32
2023-01-24T17:17:48.981Z,9.80
2023-01-24T17:20:16.035Z,10.07
2023-01-24T17:22:43.672Z,10.13
2023-01-24T17:25:10.685Z,9.55
2023-01-24T17:27:37.777Z,9.55
2023-01-24T17:30:06.594Z,9.77
2023-01-24T17:32:37.412Z,9.60
2023-01-24T17:35:04.403Z,10.05
2023-01-24T17:37:34.426Z,9.70
2023-01-24T17:40:01.262Z,9.50
2023-01-24T17:42:30.503Z,9.93
2023-01-24T17:44:57.652Z,9.63
2023-01-24T17:47:24.529Z,9.70
2023-01-24T17:49:51.265Z,9.93
2023-01-24T17:52:23.775Z,10.00
2023-01-24T17:54:53.286Z,9.63
2023-01-24T17:57:21.395Z,9.50
2023-01-24T17:59:48.054Z,9.68
2023-01-24T18:02:14.874Z,9.38
2023-01-24T18:04:44.157Z,9.60
2023-01-24T18:07:11.459Z,9.60
2023-01-24T18:09:40.476Z,9.48
2023-01-24T18:12:10.605Z,9.35
2023-01-24T18:14:41.336Z,8.82
2023-01-24T18:17:08.185Z,9.80
2023-01-24T18:19:36.035Z,9.32
2023-01-24T18:22:02.998Z,9.20
2023-01-24T18:24:29.760Z,8.85
2023-01-24T18:26:56.573Z,8.85
2023-01-24T18:29:23.281Z,9.05
2023-01-24T18:31:50.144Z,8.93
2023-01-24T18:34:16.853Z,9.43
2023-01-24T18:36:46.015Z,8.82
2023-01-24T18:39:12.752Z,9.40
2023-01-24T18:41:39.612Z,8.60
2023-01-24T18:44:07.253Z,9.27
2023-01-24T18:46:34.192Z,9.48
2023-01-24T18:49:00.952Z,9.00
2023-01-24T18:51:29.551Z,9.30
2023-01-24T18:53:57.914Z,9.13
2023-01-24T18:56:29.412Z,9.00
2023-01-24T18:58:58.828Z,9.07
2023-01-24T19:01:26.836Z,9.02
2023-01-24T19:03:54.085Z,9.13
2023-01-24T19:06:34.764Z,9.15
2023-01-24T19:09:04.241Z,8.40
2023-01-24T19:11:32.914Z,8.80
2023-01-24T19:14:02.682Z,8.77
2023-01-24T19:16:37.070Z,8.70
2023-01-24T19:19:04.806Z,8.43
2023-01-24T19:21:32.046Z,8.80
2023-01-24T19:24:00.118Z,8.35
2023-01-24T19:26:27.344Z,8.63
2023-01-24T19:28:58.716Z,8.77
2023-01-24T19:31:26.952Z,8.27
2023-01-24T19:33:55.094Z,8.40
2023-01-24T19:36:23.963Z,8.05
2023-01-24T19:38:52.911Z,8.38
2023-01-24T19:41:23.821Z,8.27
2023-01-24T19:44:17.263Z,8.40
2023-01-24T19:46:37.505Z,8.45
2023-01-24T19:49:06.442Z,8.43
2023-01-24T19:51:33.146Z,8.32
2023-01-24T19:54:00.050Z,8.73
2023-01-24T19:56:26.812Z,8.63
2023-01-24T19:58:57.072Z,8.50
2023-01-24T20:01:24.526Z,8.77
2023-01-24T20:03:59.590Z,8.50
2023-01-24T20:06:34.392Z,8.82
2023-01-24T20:09:01.132Z,8.88
2023-01-24T20:11:27.927Z,8.65
2023-01-24T20:13:58.302Z,8.98
2023-01-24T20:16:27.421Z,8.63
2023-01-24T20:18:56.774Z,7.97
2023-01-24T20:21:25.980Z,8.57
2023-01-24T20:23:54.327Z,8.20
2023-01-24T20:26:21.974Z,8.48
2023-01-24T20:28:48.730Z,8.48
2023-01-24T20:31:15.706Z,8.00
2023-01-24T20:33:42.613Z,8.43
2023-01-24T20:36:13.803Z,8.60
2023-01-24T20:38:41.084Z,8.48
2023-01-24T20:41:13.004Z,8.65
2023-01-24T20:43:40.931Z,8.23
2023-01-24T20:46:20.652Z,8.40
2023-01-24T20:48:52.086Z,8.40
2023-01-24T20:51:19.749Z,8.60
2023-01-24T20:53:46.990Z,8.00
2023-01-24T20:56:18.171Z,8.35
2023-01-24T20:58:47.134Z,8.37
2023-01-24T21:01:15.759Z,8.10
2023-01-24T21:03:43.629Z,8.32
2023-01-24T21:06:14.917Z,8.73
2023-01-24T21:08:42.993Z,8.45
2023-01-24T21:11:21.430Z,8.50
2023-01-24T21:14:11.092Z,8.70
2023-01-24T21:16:38.077Z,8.32
2023-01-24T21:19:10.261Z,8.90
2023-01-24T21:21:37.303Z,8.80
2023-01-24T21:24:27.182Z,8.57
2023-01-24T21:26:59.039Z,8.88
2023-01-24T21:29:26.061Z,8.57
2023-01-24T21:31:54.029Z,8.82
2023-01-24T21:34:21.018Z,8.55
2023-01-24T21:36:47.873Z,8.95
2023-01-24T21:39:16.106Z,8.53
2023-01-24T21:41:55.175Z,8.98
2023-01-24T21:44:27.494Z,9.00
2023-01-24T21:46:54.405Z,8.85
2023-01-24T21:49:21.867Z,9.10
2023-01-24T21:51:50.685Z,9.10
2023-01-24T21:54:23.104Z,8.95
2023-01-24T21:57:29.475Z,8.77
2023-01-24T21:59:58.596Z,9.18
2023-01-24T22:02:28.402Z,8.95
2023-01-24T22:04:55.634Z,8.48
2023-01-24T22:07:24.824Z,8.75
2023-01-24T22:09:53.317Z,8.80
2023-01-24T22:12:20.379Z,9.25
2023-01-24T22:14:47.750Z,8.75
2023-01-24T22:17:20.710Z,9.20
2023-01-24T22:19:56.032Z,8.43
2023-01-24T22:22:45.359Z,8.30
2023-01-24T22:25:15.642Z,8.60
2023-01-24T22:27:42.886Z,8.38
2023-01-24T22:30:19.368Z,8.82
2023-01-24T22:32:46.691Z,8.10
2023-01-24T22:35:15.565Z,8.27
2023-01-24T22:37:49.330Z,8.50
2023-01-24T22:40:18.134Z,8.40
2023-01-24T22:42:45.077Z,8.60
2023-01-24T22:45:12.110Z,8.63
2023-01-24T22:47:39.168Z,8.25
2023-01-24T22:50:06.364Z,8.20
2023-01-24T22:52:34.973Z,8.55
2023-01-24T22:55:02.860Z,8.10
2023-01-24T22:57:29.587Z,8.30
2023-01-24T22:59:58.675Z,8.15
2023-01-24T23:02:25.515Z,7.78
2023-01-24T23:04:52.315Z,8.07
2023-01-24T23:07:22.563Z,8.15
2023-01-24T23:09:49.754Z,8.40
2023-01-24T23:12:34.856Z,8.45
2023-01-24T23:15:20.440Z,8.63
2023-01-24T23:17:55.553Z,8.35
2023-01-24T23:20:40.985Z,8.32
2023-01-24T23:23:07.830Z,8.45
2023-01-24T23:25:34.557Z,8.17
2023-01-24T23:28:01.357Z,8.15
2023-01-24T23:31:03.826Z,8.23
2023-01-24T23:33:39.602Z,8.03
2023-01-24T23:36:07.777Z,8.25
2023-01-24T23:38:34.553Z,8.30
2023-01-24T23:41:05.499Z,8.25
2023-01-24T23:43:32.335Z,8.05
2023-01-24T23:45:59.197Z,8.18
2023-01-24T23:48:25.917Z,8.40
2023-01-24T23:50:59.643Z,8.88
2023-01-24T23:53:28.040Z,8.80
2023-01-24T23:55:55.377Z,8.57
2023-01-24T23:58:22.134Z,8.70
